Landels-Hill Big Creek Reserve Entrance, California Weather observations

Data are for 10 minute period ending at time listed.
 Day   Time   Solar   Ave.   Ave.  Ave.  Vector  Max.   Baro.   Total    
  of    of     Rad.   Air    Rel.  Wind   Wind   Wind  Press.  Precip.   
Year   Day            Temp.  Hum.  Speed  Dir.   Gust                    
2015   (PST)  Kw/m2    F      %     mph   deg.    mph    mb.     in.     
-------------------------------------------------------------------------
 113   16:00   0.15   53.8    73    4.2    82     9.4   1009.7    0.00 
 113   16:10   0.15   53.6    74    3.8    95     9.4   1009.7    0.00 
 113   16:20   0.14   53.6    74    3.9    97    11.5   1009.7    0.00 
 113   16:30   0.11   53.9    73    3.1    94     9.9   1009.6    0.00 
 113   16:40   0.10   53.8    74    3.2   102     8.8   1009.6    0.00 
 113   16:50   0.09   53.5    75    3.6    73    10.0   1009.7    0.00 
 113   17:00   0.08   53.3    76    2.6   146     6.1   1009.7    0.00 
 113   17:10   0.07   53.3    76    2.9    71     6.3   1009.7    0.00 
 113   17:20   0.06   53.2    76    3.4    75     7.9   1009.7    0.00 
 113   17:30   0.06   53.2    75    4.2    54     8.5   1009.7    0.00 
 113   17:40   0.05   53.1    76    4.3    61    11.0   1009.8    0.00 
 113   17:50   0.04   53.0    76    3.7    72    10.2   1009.8    0.00 
 113   18:00   0.03   53.0    77    2.8    68     6.3   1009.9    0.00 
 113   18:10   0.02   52.9    78    3.6    68    11.6   1009.9    0.00 
 113   18:20   0.01   52.7    78    3.2    74    10.7   1009.9    0.00 
 113   18:30   0.01   52.6    78    3.0    83     9.0   1009.8    0.00 
 113   18:40   0.01   52.6    78    2.2    80     8.5   1009.9    0.00 
 113   18:50   0.00   52.5    78    2.5    92     9.9   1009.8    0.00 
 113   19:00   0.00   52.4    79    2.9    66     8.4   1009.9    0.00 
 113   19:10   0.00   52.3    79    3.7    80     8.8   1010.0    0.00 
 113   19:20   0.00   52.2    79    4.0    76    11.4   1010.0    0.00 
 113   19:30   0.00   52.3    79    2.7    71     7.2   1010.1    0.00 
 113   19:40   0.00   52.4    79    2.0    63     5.6   1010.1    0.00 
 113   19:50   0.00   52.5    78    1.4    53     4.7   1010.3    0.00 
 113   20:00   0.00   52.4    78    1.4    92     3.8   1010.5    0.00 
 113   20:10   0.00   52.5    78    1.4   107     3.9   1010.5    0.00 
 113   20:20   0.00   52.5    78    0.7    60     1.9   1010.6    0.00 
 113   20:30   0.00   52.6    78    0.2    47     1.4   1010.7    0.00 
 113   20:40   0.00   52.6    78    0.0     0     0.0   1010.8    0.00 
 113   20:50   0.00   52.7    79    0.2   296     1.0   1010.8    0.00 
 113   21:00   0.00   52.5    79    0.7   348     1.9   1010.9    0.00 
 113   21:10   0.00   52.5    80    0.1   333     0.9   1010.9    0.00 
 113   21:20   0.00   52.6    80    0.2   338     1.1   1011.0    0.00 
 113   21:30   0.00   52.5    80    0.2   359     1.2   1011.1    0.00 
 113   21:40   0.00   52.4    80    0.2     3     1.4   1011.0    0.00 
 113   21:50   0.00   52.4    80    0.3     4     1.2   1010.9    0.00 
 113   22:00   0.00   52.2    80    0.2    35     0.9   1010.8    0.00 
 113   22:10   0.00   51.9    81    0.6   275     3.8   1010.9    0.00 
 113   22:20   0.00   52.1    80    0.7    13     2.0   1010.9    0.00 
 113   22:30   0.00   52.1    80    0.3    10     1.8   1010.8    0.00 
 113   22:40   0.00   51.6    80    1.1    23     3.5   1010.9    0.00 
 113   22:50   0.00   51.1    81    2.3    57     4.2   1011.2    0.00 
 113   23:00   0.00   51.1    80    1.0    26     2.4   1011.2    0.00 
 113   23:10   0.00   50.7    82    2.5    46     5.4   1011.3    0.00 
 113   23:20   0.00   51.5    81    2.6    56     5.6   1011.3    0.00 
 113   23:30   0.00   50.8    81    1.8     1     3.5   1011.4    0.00 
 113   23:40   0.00   49.8    83    2.5    12     5.0   1011.4    0.00 
 113   23:50   0.00   49.7    84    2.7     3     5.9   1011.4    0.00 
 114    0:00   0.00   49.6    84    2.4    25     6.9   1011.3    0.00 
 114    0:10   0.00   49.8    84    1.7   349     3.8   1011.4    0.00 
 114    0:20   0.00   50.0    83    1.8    29     3.3   1011.4    0.00 
 114    0:30   0.00   49.9    84    1.5    29     5.9   1011.4    0.00 
 114    0:40   0.00   50.1    84    1.8    14     5.0   1011.5    0.00 
 114    0:50   0.00   50.5    82    1.2    58     4.0   1011.4    0.00 
 114    1:00   0.00   50.8    82    1.7     3     4.8   1011.3    0.00 
 114    1:10   0.00   51.1    80    2.2     9     4.7   1011.2    0.00 
 114    1:20   0.00   51.3    80    1.3   360     3.9   1011.2    0.00 
 114    1:30   0.00   51.0    81    2.0     1     4.4   1011.0    0.00 
 114    1:40   0.00   50.9    81    2.4   355     5.4   1010.8    0.00 
 114    1:50   0.00   50.7    81    2.8   359     4.5   1010.8    0.00 
 114    2:00   0.00   50.4    81    2.1    23     4.1   1010.8    0.00 
 114    2:10   0.00   49.7    83    2.1    18     4.6   1010.9    0.00 
 114    2:20   0.00   49.6    84    1.9   358     6.1   1010.9    0.00 
 114    2:30   0.00   49.5    83    2.1   356     5.7   1011.0    0.00 
 114    2:40   0.00   49.3    83    2.4     7     5.3   1011.0    0.00 
 114    2:50   0.00   48.8    84    2.4     7     5.3   1011.0    0.00 
 114    3:00   0.00   48.8    84    1.9     0     4.8   1011.0    0.00 
 114    3:10   0.00   48.7    84    2.3     8     6.6   1011.0    0.00 
 114    3:20   0.00   48.5    85    2.0    26     5.2   1011.0    0.00 
 114    3:30   0.00   48.1    86    2.3    12     5.4   1011.0    0.00 
 114    3:40   0.00   47.8    87    1.7    34     5.6   1010.9    0.00 
 114    3:50   0.00   47.6    87    2.2    50     5.8   1010.9    0.00 
 114    4:00   0.00   47.4    88    2.1    58     4.2   1010.9    0.00 
 114    4:10   0.00   47.1    89    2.6    52     5.0   1010.8    0.00 
 114    4:20   0.00   47.0    89    1.8    44     3.9   1010.9    0.00 
 114    4:30   0.00   47.1    90    2.7    19     8.6   1010.9    0.00 
 114    4:40   0.00   46.8    90    3.3     1     6.2   1010.9    0.00 
 114    4:50   0.00   46.6    90    1.8    28     4.7   1010.9    0.00 
 114    5:00   0.00   46.8    91    1.7    24     4.5   1011.0    0.00 
 114    5:10   0.00   46.6    91    1.9    31     4.8   1011.1    0.00 
 114    5:20   0.00   46.5    91    1.6    33     3.7   1011.2    0.00 
 114    5:30   0.00   46.4    91    2.2    40     4.7   1011.3    0.00 
 114    5:40   0.01   46.5    92    2.3    53     4.7   1011.4    0.00 
 114    5:50   0.01   46.6    92    2.3    44     4.8   1011.5    0.00 
 114    6:00   0.01   46.7    92    2.6    38     5.5   1011.6    0.00 
 114    6:10   0.01   46.6    92    3.3     3     7.7   1011.8    0.00 
 114    6:20   0.02   46.6    92    2.3    29     5.6   1012.0    0.00 
 114    6:30   0.03   46.8    92    2.4    44     5.3   1012.1    0.00 
 114    6:40   0.03   47.2    92    2.2    45     4.6   1012.1    0.00 
 114    6:50   0.03   47.5    92    2.3    61     4.6   1012.2    0.00 
 114    7:00   0.03   48.2    91    2.2    40     5.3   1012.2    0.00 
 114    7:10   0.03   48.6    90    1.6    26     3.5   1012.4    0.00 
 114    7:20   0.04   48.6    90    1.6     3     2.6   1012.5    0.00 
 114    7:30   0.07   49.0    90    0.7     6     2.5   1012.6    0.00 
 114    7:40   0.10   49.6    91    0.5     2     2.4   1012.7    0.00 
 114    7:50   0.11   51.9    91    0.2   109     1.5   1012.9    0.00 
 114    8:00   0.09   53.6    87    0.6   272     2.0   1013.0    0.00 
 114    8:10   0.09   54.6    83    0.5   339     2.6   1013.0    0.00 
 114    8:20   0.08   55.0    81    0.9   285     3.1   1012.8    0.00 
 114    8:30   0.12   55.5    81    1.2   180     4.2   1013.0    0.00 
 114    8:40   0.19   55.9    80    3.7   125     7.2   1013.1    0.00 
 114    8:50   0.25   56.0    81    3.3   164     7.2   1013.0    0.00 
 114    9:00   0.26   56.5    80    2.2   207     6.2   1013.0    0.00 
 114    9:10   0.30   57.1    79    1.9   216     4.8   1013.0    0.00 
 114    9:20   0.32   57.6    78    0.9   211     3.1   1012.9    0.00 
 114    9:30   0.40   57.3    78    1.5   228     4.2   1013.0    0.00 
 114    9:40   0.41   56.9    79    2.0   266     4.6   1013.0    0.00 
 114    9:50   0.40   57.1    78    2.2   276     5.9   1012.9    0.00 
 114   10:00   0.41   57.4    77    1.7   286     3.9   1012.9    0.00 
 114   10:10   0.45   56.9    77    2.5   262     4.9   1013.0    0.00 
 114   10:20   0.70   57.3    76    2.6   256     4.8   1013.1    0.00 
 114   10:30   0.67   58.5    72    2.1   262     5.6   1013.2    0.00 
 114   10:40   0.70   59.7    71    2.5   265     9.1   1013.2    0.00 
 114   10:50   0.70   58.1    72    3.3   269     7.7   1013.2    0.00 
 114   11:00   0.68   58.7    69    2.1   190     4.5   1013.3    0.00 
 114   11:10   0.68   59.6    65    2.4   119     5.3   1013.2    0.00 
 114   11:20   0.82   60.1    62    3.6   160    11.5   1013.2    0.00 
 114   11:30   0.91   60.0    58    7.3   158    14.4   1013.1    0.00 
 114   11:40   0.69   60.1    55    5.4   155    16.6   1013.0    0.00 
 114   11:50   0.93   59.4    55    5.2    85    14.6   1013.0    0.00 
 114   12:00   0.93   59.0    57    7.9   157    19.6   1012.9    0.00 
 114   12:10   0.88   59.9    57    4.9   157    11.8   1012.9    0.00 
 114   12:20   0.89   60.0    56    5.0   155    14.4   1012.8    0.00 
 114   12:30   0.94   59.8    56    5.2    95    15.3   1012.9    0.00 
 114   12:40   0.93   59.4    58    5.5   184    16.4   1012.9    0.00 
 114   12:50   0.65   59.0    59    4.2   127    10.5   1012.8    0.00 
 114   13:00   0.89   59.5    59    5.6   111    16.5   1012.8    0.00 
 114   13:10   0.89   59.2    60    5.6   126    14.6   1012.9    0.00 
 114   13:20   0.91   58.7    62    7.8   164    16.3   1012.9    0.00 
 114   13:30   0.89   58.4    63    7.5   162    17.0   1012.9    0.00 
 114   13:40   0.89   59.8    59    4.8   151    12.9   1012.9    0.00 
 114   13:50   0.86   59.7    58    6.1   171    14.0   1012.8    0.00 
 114   14:00   0.81   60.0    58    5.5   152    16.1   1012.9    0.00 
 114   14:10   0.82   58.8    61    7.4   173    18.2   1012.8    0.00 
 114   14:20   0.82   59.1    61    5.7   164    18.7   1012.7    0.00 
 114   14:30   0.80   58.9    62    5.3   170    16.5   1012.7    0.00 
 114   14:40   0.78   59.8    59    6.7   162    14.6   1012.6    0.00 
 114   14:50   0.76   58.8    61    7.4   172    15.3   1012.7    0.00 
 114   15:00   0.73   58.8    60    6.1   173    14.2   1012.5    0.00 
 114   15:10   0.70   60.2    58    5.1   177    13.4   1012.5    0.00 
 114   15:20   0.68   59.7    58    5.9   161    15.6   1012.6    0.00 
 114   15:30   0.65   59.6    58    6.5   172    18.8   1012.5    0.00 
 114   15:40   0.62   59.5    59    7.0   170    14.8   1012.5    0.00 
 114   15:50   0.58   59.1    60    6.7   154    16.2   1012.7    0.00 

Return to Big Creek Reserve Entrance graphs page.


Western Regional Climate Center,wrcc@dri.edu